createdAt,value
2022-10-13T00:00:41.779Z,12.43
2022-10-13T00:03:09.616Z,12.43
2022-10-13T00:05:48.832Z,13.23
2022-10-13T00:08:21.050Z,12.33
2022-10-13T00:10:50.174Z,12.63
2022-10-13T00:13:18.201Z,12.10
2022-10-13T00:15:46.216Z,12.03
2022-10-13T00:18:13.670Z,12.60
2022-10-13T00:20:46.319Z,11.77
2022-10-13T00:23:13.995Z,12.70
2022-10-13T00:25:45.644Z,13.03
2022-10-13T00:28:14.998Z,12.57
2022-10-13T00:30:42.227Z,12.60
2022-10-13T00:33:10.556Z,12.87
2022-10-13T00:35:45.813Z,12.40
2022-10-13T00:38:20.007Z,12.47
2022-10-13T00:40:52.245Z,12.20
2022-10-13T00:43:22.821Z,12.90
2022-10-13T00:45:51.981Z,13.67
2022-10-13T00:48:25.887Z,12.40
2022-10-13T00:50:53.484Z,11.80
2022-10-13T00:53:23.257Z,12.20
2022-10-13T00:55:51.157Z,12.20
2022-10-13T00:58:22.960Z,12.37
2022-10-13T01:00:52.935Z,12.90
2022-10-13T01:03:20.554Z,12.37
2022-10-13T01:05:48.573Z,13.10
2022-10-13T01:08:16.480Z,12.67
2022-10-13T01:10:57.468Z,13.73
2022-10-13T01:13:49.060Z,13.43
2022-10-13T01:16:40.946Z,12.90
2022-10-13T01:19:25.315Z,11.93
2022-10-13T01:21:58.058Z,12.30
2022-10-13T01:24:48.072Z,12.90
2022-10-13T01:27:40.092Z,12.43
2022-10-13T01:30:10.034Z,12.23
2022-10-13T01:33:02.745Z,12.87
2022-10-13T01:35:50.696Z,12.93
2022-10-13T01:39:05.037Z,13.10
2022-10-13T01:41:39.232Z,12.17
2022-10-13T01:44:16.908Z,13.10
2022-10-13T01:46:45.847Z,12.23
2022-10-13T01:49:15.459Z,13.23
2022-10-13T01:51:44.716Z,13.73
2022-10-13T01:54:11.485Z,12.87
2022-10-13T01:56:38.312Z,12.27
2022-10-13T01:59:10.346Z,13.63
2022-10-13T02:01:40.473Z,12.33
2022-10-13T02:04:21.237Z,13.40
2022-10-13T02:07:10.194Z,14.23
2022-10-13T02:09:57.168Z,15.43
2022-10-13T02:12:34.898Z,14.20
2022-10-13T02:15:03.227Z,13.97
2022-10-13T02:17:31.801Z,13.00
2022-10-13T02:19:59.067Z,13.30
2022-10-13T02:22:30.642Z,12.60
2022-10-13T02:24:57.507Z,12.70
2022-10-13T02:27:24.995Z,13.10
2022-10-13T02:29:57.252Z,13.47
2022-10-13T02:32:24.297Z,13.43
2022-10-13T02:34:51.349Z,12.23
2022-10-13T02:37:18.593Z,12.77
2022-10-13T02:39:45.342Z,13.77
2022-10-13T02:42:12.365Z,15.97
2022-10-13T02:44:40.164Z,18.30
2022-10-13T02:47:07.001Z,16.10
2022-10-13T02:49:33.713Z,16.20
2022-10-13T02:52:00.559Z,13.90
2022-10-13T02:54:27.371Z,14.83
2022-10-13T02:56:54.382Z,15.27
2022-10-13T02:59:22.306Z,14.77
2022-10-13T03:01:50.141Z,13.77
2022-10-13T03:04:16.922Z,15.97
2022-10-13T03:06:43.743Z,14.20
2022-10-13T03:09:11.393Z,14.40
2022-10-13T03:11:38.146Z,14.80
2022-10-13T03:14:04.947Z,14.53
2022-10-13T03:16:31.715Z,13.33
2022-10-13T03:18:59.579Z,13.77
2022-10-13T03:21:26.324Z,13.20
2022-10-13T03:23:54.278Z,12.50
2022-10-13T03:26:21.223Z,13.30
2022-10-13T03:28:51.750Z,13.10
2022-10-13T03:31:18.958Z,12.27
2022-10-13T03:33:45.986Z,13.33
2022-10-13T03:36:16.354Z,12.57
2022-10-13T03:38:43.600Z,12.13
2022-10-13T03:41:16.987Z,13.30
2022-10-13T03:43:44.949Z,12.53
2022-10-13T03:46:15.153Z,12.97
2022-10-13T03:48:42.108Z,12.13
2022-10-13T03:51:15.021Z,13.77
2022-10-13T03:53:42.969Z,14.67
2022-10-13T03:56:17.526Z,12.97
2022-10-13T03:58:44.428Z,13.27
2022-10-13T04:01:12.774Z,13.97
2022-10-13T04:03:39.661Z,13.33
2022-10-13T04:06:07.689Z,13.00
2022-10-13T04:08:34.588Z,13.70
2022-10-13T04:11:10.842Z,13.67
2022-10-13T04:13:39.929Z,13.50
2022-10-13T04:16:15.381Z,12.73
2022-10-13T04:18:44.837Z,13.60
2022-10-13T04:21:14.397Z,13.57
2022-10-13T04:23:41.208Z,15.07
2022-10-13T04:26:19.350Z,14.20
2022-10-13T04:28:48.203Z,13.77
2022-10-13T04:31:15.141Z,13.60
2022-10-13T04:33:42.192Z,14.80
2022-10-13T04:36:11.258Z,14.33
2022-10-13T04:38:40.689Z,13.63
2022-10-13T04:41:08.784Z,14.00
2022-10-13T04:43:35.972Z,15.17
2022-10-13T04:46:23.995Z,13.97
2022-10-13T04:48:51.272Z,15.17
2022-10-13T04:51:20.653Z,14.73
2022-10-13T04:53:48.884Z,13.90
2022-10-13T04:56:17.817Z,14.27
2022-10-13T04:58:45.991Z,15.23
2022-10-13T05:01:21.468Z,13.70
2022-10-13T05:03:54.980Z,14.20
2022-10-13T05:06:32.082Z,13.87
2022-10-13T05:08:59.751Z,15.07
2022-10-13T05:11:27.983Z,14.90
2022-10-13T05:13:55.683Z,14.83
2022-10-13T05:16:23.092Z,15.13
2022-10-13T05:18:51.069Z,14.73
2022-10-13T05:21:20.534Z,13.47
2022-10-13T05:23:47.356Z,15.13
2022-10-13T05:26:16.923Z,15.23
2022-10-13T05:28:44.627Z,14.40
2022-10-13T05:31:16.751Z,15.43
2022-10-13T05:33:45.473Z,15.23
2022-10-13T05:36:21.536Z,14.47
2022-10-13T05:38:53.052Z,15.07
2022-10-13T05:41:20.557Z,14.10
2022-10-13T05:43:47.404Z,15.13
2022-10-13T05:46:14.445Z,14.17
2022-10-13T05:48:41.223Z,16.93
2022-10-13T05:51:17.936Z,14.57
2022-10-13T05:53:55.373Z,15.53
2022-10-13T05:56:30.017Z,15.37
2022-10-13T05:59:00.921Z,16.10
2022-10-13T06:01:31.362Z,16.87
2022-10-13T06:04:03.452Z,15.63
2022-10-13T06:06:31.628Z,15.20
2022-10-13T06:08:59.940Z,16.60
2022-10-13T06:11:26.986Z,15.33
2022-10-13T06:13:53.738Z,13.83
2022-10-13T06:16:20.453Z,15.53
2022-10-13T06:18:47.261Z,15.60
2022-10-13T06:21:14.008Z,15.57
2022-10-13T06:23:40.815Z,15.57
2022-10-13T06:26:09.203Z,14.67
2022-10-13T06:28:36.075Z,14.70
2022-10-13T06:31:07.414Z,15.33
2022-10-13T06:33:34.512Z,14.80
2022-10-13T06:36:05.364Z,15.67
2022-10-13T06:38:37.943Z,15.03
2022-10-13T06:41:06.037Z,13.97
2022-10-13T06:43:39.663Z,13.97
2022-10-13T06:46:12.402Z,22.13
2022-10-13T06:48:39.682Z,15.47
2022-10-13T06:51:09.731Z,15.43
2022-10-13T06:53:37.886Z,15.63
2022-10-13T06:56:09.087Z,16.47
2022-10-13T06:58:36.946Z,14.77
2022-10-13T07:01:05.504Z,15.20
2022-10-13T07:03:35.673Z,14.37
2022-10-13T07:06:04.268Z,14.70
2022-10-13T07:08:31.886Z,14.17
2022-10-13T07:10:59.133Z,14.80
2022-10-13T07:13:26.275Z,14.03
2022-10-13T07:15:53.091Z,14.73
2022-10-13T07:18:19.858Z,14.43
2022-10-13T07:20:46.708Z,15.73
2022-10-13T07:23:13.391Z,14.77
2022-10-13T07:25:41.270Z,15.77
2022-10-13T07:28:08.098Z,14.63
2022-10-13T07:30:34.820Z,14.73
2022-10-13T07:33:01.587Z,15.37
2022-10-13T07:35:30.673Z,15.63
2022-10-13T07:37:57.822Z,14.70
2022-10-13T07:40:24.898Z,14.53
2022-10-13T07:42:51.635Z,14.97
2022-10-13T07:45:18.777Z,16.10
2022-10-13T07:47:45.521Z,15.17
2022-10-13T07:50:12.447Z,15.23
2022-10-13T07:52:39.316Z,15.17
2022-10-13T07:55:06.593Z,14.07
2022-10-13T07:57:33.470Z,14.03
2022-10-13T08:00:00.421Z,13.60
2022-10-13T08:02:27.325Z,13.93
2022-10-13T08:04:54.102Z,14.43
2022-10-13T08:07:21.147Z,14.80
2022-10-13T08:09:48.225Z,13.70
2022-10-13T08:12:15.068Z,13.77
2022-10-13T08:14:42.462Z,14.37
2022-10-13T08:17:10.358Z,15.43
2022-10-13T08:19:37.170Z,14.90
2022-10-13T08:22:07.829Z,14.30
2022-10-13T08:24:36.668Z,16.13
2022-10-13T08:27:09.804Z,15.77
2022-10-13T08:29:36.559Z,15.30
2022-10-13T08:32:03.418Z,14.77
2022-10-13T08:34:30.238Z,15.00
2022-10-13T08:36:57.703Z,14.40
2022-10-13T08:39:25.258Z,15.93
2022-10-13T08:41:53.096Z,16.33
2022-10-13T08:47:53.022Z,16.07
2022-10-13T08:50:24.480Z,15.83
2022-10-13T08:53:04.592Z,16.97
2022-10-13T08:55:50.173Z,16.23
2022-10-13T08:58:26.952Z,16.33
2022-10-13T09:01:08.953Z,16.07
2022-10-13T09:03:51.113Z,15.13
2022-10-13T09:06:27.817Z,15.90
2022-10-13T09:09:09.608Z,16.60
2022-10-13T09:11:39.111Z,17.40
2022-10-13T09:14:23.676Z,16.43
2022-10-13T09:16:52.217Z,17.50
2022-10-13T09:19:33.939Z,17.23
2022-10-13T09:22:24.308Z,18.00
2022-10-13T09:25:22.970Z,20.50
2022-10-13T09:27:52.738Z,19.07
2022-10-13T09:30:29.146Z,17.90
2022-10-13T09:33:09.090Z,19.13
2022-10-13T09:35:45.943Z,18.70
2022-10-13T09:38:22.768Z,19.30
2022-10-13T09:41:12.477Z,19.57
2022-10-13T09:43:48.186Z,20.00
2022-10-13T09:46:33.269Z,17.70
2022-10-13T09:49:37.876Z,18.60
2022-10-13T09:52:06.327Z,18.30
2022-10-13T09:54:38.603Z,18.07
2022-10-13T09:57:14.212Z,17.37
2022-10-13T09:59:47.110Z,17.15
2022-10-13T10:02:28.684Z,17.13
2022-10-13T10:05:00.081Z,15.75
2022-10-13T10:07:31.976Z,16.23
2022-10-13T10:10:05.363Z,15.93
2022-10-13T10:12:36.541Z,15.18
2022-10-13T10:15:07.953Z,15.23
2022-10-13T10:17:46.625Z,14.73
2022-10-13T10:20:31.302Z,14.35
2022-10-13T10:23:11.284Z,15.52
2022-10-13T10:25:39.894Z,14.93
2022-10-13T10:28:44.472Z,16.42
2022-10-13T10:31:28.825Z,15.80
2022-10-13T10:34:27.166Z,16.60
2022-10-13T10:37:01.187Z,15.80
2022-10-13T10:39:55.780Z,16.15
2022-10-13T10:42:40.522Z,16.17
2022-10-13T10:45:18.096Z,15.38
2022-10-13T10:47:48.854Z,15.70
2022-10-13T10:50:18.583Z,15.15
2022-10-13T10:52:50.359Z,13.77
2022-10-13T10:55:30.097Z,13.65
2022-10-13T10:58:39.231Z,13.77
2022-10-13T11:01:18.413Z,13.23
2022-10-13T11:04:12.583Z,12.88
2022-10-13T11:06:39.538Z,12.65
2022-10-13T11:09:12.322Z,13.23
2022-10-13T11:11:42.850Z,12.95
2022-10-13T11:14:09.574Z,13.98
2022-10-13T11:16:41.579Z,13.32
2022-10-13T11:19:08.481Z,12.25
2022-10-13T11:21:59.013Z,12.75
2022-10-13T11:24:35.063Z,12.60
2022-10-13T11:27:08.002Z,11.18
2022-10-13T11:30:01.756Z,11.15
2022-10-13T11:32:31.219Z,11.10
2022-10-13T11:35:09.745Z,12.77
2022-10-13T11:37:36.534Z,11.68
2022-10-13T11:40:22.926Z,11.02
2022-10-13T11:43:05.052Z,8.90
2022-10-13T11:45:36.281Z,8.88
2022-10-13T11:48:33.301Z,8.55
2022-10-13T11:51:33.038Z,9.00
2022-10-13T11:54:30.233Z,9.60
2022-10-13T11:56:58.368Z,10.05
2022-10-13T11:59:31.002Z,10.23
2022-10-13T12:01:59.124Z,10.20
2022-10-13T12:04:28.249Z,9.98
2022-10-13T12:07:01.954Z,11.35
2022-10-13T12:09:33.776Z,12.00
2022-10-13T12:12:12.528Z,12.80
2022-10-13T12:14:43.271Z,12.00
2022-10-13T12:17:32.054Z,13.27
2022-10-13T12:20:01.818Z,13.25
2022-10-13T12:22:29.133Z,13.18
2022-10-13T12:25:02.122Z,14.35
2022-10-13T12:27:42.272Z,14.52
2022-10-13T12:30:29.625Z,14.70
2022-10-13T12:32:59.390Z,13.68
2022-10-13T12:35:32.240Z,14.32
2022-10-13T12:38:03.801Z,13.90
2022-10-13T12:40:30.953Z,13.18
2022-10-13T12:42:58.103Z,13.80
2022-10-13T12:45:31.503Z,13.13
2022-10-13T12:47:58.389Z,13.25
2022-10-13T12:50:33.587Z,12.20
2022-10-13T12:53:09.444Z,12.38
2022-10-13T12:55:55.911Z,12.38
2022-10-13T12:58:29.636Z,12.20
2022-10-13T13:01:09.955Z,12.13
2022-10-13T13:03:38.360Z,11.73
2022-10-13T13:06:14.373Z,12.57
2022-10-13T13:08:43.253Z,13.60
2022-10-13T13:11:33.002Z,12.63
2022-10-13T13:14:35.513Z,14.00
2022-10-13T13:17:06.523Z,13.93
2022-10-13T13:19:35.283Z,14.65
2022-10-13T13:22:08.853Z,14.43
2022-10-13T13:24:40.046Z,14.18
2022-10-13T13:27:25.393Z,14.00
2022-10-13T13:29:54.059Z,13.57
2022-10-13T13:32:22.593Z,14.73
2022-10-13T13:34:50.233Z,14.38
2022-10-13T13:37:31.099Z,15.35
2022-10-13T13:40:01.201Z,15.97
2022-10-13T13:42:29.101Z,15.60
2022-10-13T13:44:56.487Z,16.48
2022-10-13T13:47:25.871Z,16.67
2022-10-13T13:49:53.979Z,15.97
2022-10-13T13:52:23.673Z,17.43
2022-10-13T13:54:50.865Z,16.70
2022-10-13T13:57:18.481Z,17.93
2022-10-13T13:59:45.865Z,17.57
2022-10-13T14:02:18.343Z,16.03
2022-10-13T14:04:45.354Z,17.57
2022-10-13T14:07:16.534Z,17.80
2022-10-13T14:09:43.251Z,17.57
2022-10-13T14:12:10.030Z,17.03
2022-10-13T14:14:36.741Z,17.57
2022-10-13T14:17:04.122Z,16.97
2022-10-13T14:19:34.413Z,16.90
2022-10-13T14:22:04.742Z,18.30
2022-10-13T14:24:35.281Z,17.57
2022-10-13T14:27:02.521Z,16.47
2022-10-13T14:29:29.385Z,17.53
2022-10-13T14:31:56.179Z,17.63
2022-10-13T14:34:22.977Z,17.33
2022-10-13T14:36:50.311Z,17.67
2022-10-13T14:39:17.059Z,18.63
2022-10-13T14:41:43.908Z,17.83
2022-10-13T14:44:13.633Z,16.67
2022-10-13T14:46:41.226Z,18.00
2022-10-13T14:49:07.913Z,17.33
2022-10-13T14:51:34.709Z,17.93
2022-10-13T14:54:02.711Z,18.57
2022-10-13T14:56:30.472Z,18.93
2022-10-13T14:58:59.440Z,17.80
2022-10-13T15:01:26.316Z,18.13
2022-10-13T15:03:53.265Z,17.50
2022-10-13T15:06:22.583Z,17.63
2022-10-13T15:08:49.839Z,16.97
2022-10-13T15:11:18.230Z,18.52
2022-10-13T15:13:45.430Z,16.73
2022-10-13T15:16:20.543Z,16.58
2022-10-13T15:18:47.358Z,17.95
2022-10-13T15:21:14.298Z,16.65
2022-10-13T15:23:42.598Z,17.13
2022-10-13T15:26:12.010Z,17.10
2022-10-13T15:28:45.331Z,17.45
2022-10-13T15:31:13.173Z,18.00
2022-10-13T15:33:46.570Z,18.05
2022-10-13T15:36:14.780Z,18.02
2022-10-13T15:38:41.869Z,17.27
2022-10-13T15:41:10.348Z,17.08
2022-10-13T15:43:49.396Z,18.00
2022-10-13T15:46:21.646Z,17.42
2022-10-13T15:48:53.200Z,19.63
2022-10-13T15:51:22.399Z,19.00
2022-10-13T15:53:49.437Z,18.77
2022-10-13T15:56:16.709Z,17.83
2022-10-13T15:58:46.037Z,20.40
2022-10-13T16:01:14.564Z,18.98
2022-10-13T16:03:42.250Z,19.23
2022-10-13T16:06:11.457Z,19.77
2022-10-13T16:08:39.945Z,19.57
2022-10-13T16:11:11.619Z,18.90
2022-10-13T16:13:38.883Z,19.80
2022-10-13T16:16:05.924Z,21.13
2022-10-13T16:18:35.194Z,20.37
2022-10-13T16:21:18.496Z,21.77
2022-10-13T16:23:46.671Z,20.50
2022-10-13T16:26:14.051Z,20.67
2022-10-13T16:28:41.153Z,21.27
2022-10-13T16:31:13.944Z,20.73
2022-10-13T16:33:42.001Z,21.13
2022-10-13T16:36:13.562Z,21.73
2022-10-13T16:38:41.847Z,22.60
2022-10-13T16:41:12.423Z,21.87
2022-10-13T16:43:41.617Z,21.53
2022-10-13T16:46:12.914Z,22.93
2022-10-13T16:48:41.079Z,22.77
2022-10-13T16:51:10.614Z,22.17
2022-10-13T16:53:38.677Z,22.27
2022-10-13T16:56:09.695Z,23.53
2022-10-13T16:58:36.775Z,23.17
2022-10-13T17:01:11.395Z,20.93
2022-10-13T17:03:40.150Z,23.23
2022-10-13T17:06:07.327Z,23.10
2022-10-13T17:08:34.499Z,23.57
2022-10-13T17:11:01.934Z,23.17
2022-10-13T17:13:29.962Z,23.87
2022-10-13T17:15:57.702Z,26.33
2022-10-13T17:18:25.330Z,25.17
2022-10-13T17:20:56.288Z,26.80
2022-10-13T17:23:30.986Z,27.57
2022-10-13T17:26:07.193Z,24.10
2022-10-13T17:28:35.533Z,24.83
2022-10-13T17:31:09.667Z,26.10
2022-10-13T17:33:37.708Z,23.00
2022-10-13T17:36:12.049Z,26.10
2022-10-13T17:38:38.905Z,26.97
2022-10-13T17:41:07.611Z,26.57
2022-10-13T17:43:35.004Z,25.63
2022-10-13T17:46:35.177Z,27.10
2022-10-13T17:48:58.837Z,27.80
2022-10-13T17:51:25.625Z,26.67
2022-10-13T17:53:52.925Z,27.33
2022-10-13T17:56:25.484Z,26.13
2022-10-13T17:58:52.877Z,28.53
2022-10-13T18:01:25.090Z,27.07
2022-10-13T18:03:54.870Z,27.83
2022-10-13T18:06:22.497Z,28.50
2022-10-13T18:08:53.054Z,28.90
2022-10-13T18:11:21.942Z,28.83
2022-10-13T18:13:49.181Z,30.17
2022-10-13T18:16:24.027Z,27.97
2022-10-13T18:18:52.083Z,30.37
2022-10-13T18:21:27.236Z,28.70
2022-10-13T18:24:00.827Z,31.07
2022-10-13T18:26:31.871Z,31.60
2022-10-13T18:28:59.081Z,30.10
2022-10-13T18:31:31.274Z,29.70
2022-10-13T18:34:05.018Z,30.33
2022-10-13T18:36:36.875Z,33.43
2022-10-13T18:39:25.794Z,33.07
2022-10-13T18:41:54.111Z,34.23
2022-10-13T18:44:21.474Z,34.00
2022-10-13T18:46:56.596Z,32.97
2022-10-13T18:49:31.126Z,32.00
2022-10-13T18:52:01.972Z,32.93
2022-10-13T18:54:29.749Z,33.63
2022-10-13T18:56:57.263Z,32.77
2022-10-13T18:59:24.079Z,32.67
2022-10-13T19:01:50.989Z,33.67
2022-10-13T19:04:17.985Z,32.27
2022-10-13T19:06:44.954Z,34.77
2022-10-13T19:09:14.166Z,34.13
2022-10-13T19:11:41.429Z,34.50
2022-10-13T19:14:11.497Z,36.53
2022-10-13T19:16:40.678Z,35.73
2022-10-13T19:19:10.462Z,34.87
2022-10-13T19:21:41.229Z,37.43
2022-10-13T19:24:08.838Z,36.10
2022-10-13T19:26:43.219Z,35.97
2022-10-13T19:29:12.663Z,37.03
2022-10-13T19:31:41.520Z,35.03
2022-10-13T19:34:15.216Z,36.10
2022-10-13T19:36:46.620Z,34.43
2022-10-13T19:39:27.490Z,36.30
2022-10-13T19:41:58.867Z,41.40
2022-10-13T19:44:26.067Z,37.80
2022-10-13T19:46:53.810Z,37.73
2022-10-13T19:49:25.132Z,34.57
2022-10-13T19:51:54.030Z,36.20
2022-10-13T19:54:22.356Z,37.77
2022-10-13T19:56:50.443Z,35.17
2022-10-13T19:59:23.554Z,37.77
2022-10-13T20:01:50.345Z,36.27
2022-10-13T20:04:22.694Z,39.17
2022-10-13T20:06:52.679Z,42.00
2022-10-13T20:09:20.826Z,40.97
2022-10-13T20:11:49.926Z,40.67
2022-10-13T20:14:17.648Z,39.17
2022-10-13T20:16:45.740Z,37.90
2022-10-13T20:19:14.424Z,36.70
2022-10-13T20:21:41.404Z,36.77
2022-10-13T20:24:13.884Z,36.70
2022-10-13T20:26:41.128Z,36.23
2022-10-13T20:29:11.186Z,36.30
2022-10-13T20:31:40.572Z,34.17
2022-10-13T20:34:10.927Z,32.80
2022-10-13T20:36:41.271Z,32.53
2022-10-13T20:39:16.529Z,30.57
2022-10-13T20:41:43.844Z,29.03
2022-10-13T20:44:10.895Z,27.67
2022-10-13T20:46:37.877Z,25.20
2022-10-13T20:49:10.816Z,26.37
2022-10-13T20:51:38.246Z,24.63
2022-10-13T20:54:05.254Z,25.00
2022-10-13T20:56:32.099Z,23.47
2022-10-13T20:59:05.029Z,23.60
2022-10-13T21:01:33.565Z,22.53
2022-10-13T21:04:05.168Z,23.90
2022-10-13T21:06:33.073Z,22.60
2022-10-13T21:08:59.908Z,21.30
2022-10-13T21:11:26.824Z,22.73
2022-10-13T21:13:54.031Z,20.90
2022-10-13T21:16:27.319Z,19.70
2022-10-13T21:18:56.296Z,20.33
2022-10-13T21:21:26.232Z,18.87
2022-10-13T21:24:00.770Z,19.30
2022-10-13T21:26:32.535Z,17.83
2022-10-13T21:29:00.918Z,18.07
2022-10-13T21:31:28.359Z,18.50
2022-10-13T21:33:55.597Z,18.30
2022-10-13T21:36:24.982Z,18.47
2022-10-13T21:38:55.835Z,16.80
2022-10-13T21:41:23.993Z,17.70
2022-10-13T21:43:51.937Z,17.10
2022-10-13T21:46:25.185Z,16.37
2022-10-13T21:49:00.843Z,16.43
2022-10-13T21:51:33.613Z,16.13
2022-10-13T21:54:06.083Z,16.87
2022-10-13T21:56:34.856Z,14.87
2022-10-13T21:59:02.122Z,15.87
2022-10-13T22:01:30.067Z,15.90
2022-10-13T22:03:59.603Z,17.47
2022-10-13T22:06:34.258Z,17.30
2022-10-13T22:09:03.464Z,16.60
2022-10-13T22:11:32.763Z,17.23
2022-10-13T22:14:00.195Z,16.77
2022-10-13T22:16:30.550Z,17.43
2022-10-13T22:19:00.564Z,17.80
2022-10-13T22:21:30.441Z,18.60
2022-10-13T22:24:00.815Z,19.80
2022-10-13T22:26:29.926Z,19.90
2022-10-13T22:28:58.351Z,21.10
2022-10-13T22:31:26.777Z,21.30
2022-10-13T22:33:54.757Z,21.97
2022-10-13T22:36:23.511Z,24.20
2022-10-13T22:39:02.186Z,24.27
2022-10-13T22:41:35.985Z,24.17
2022-10-13T22:44:05.757Z,24.40
2022-10-13T22:46:37.801Z,24.33
2022-10-13T22:49:05.841Z,23.77
2022-10-13T22:51:34.424Z,24.03
2022-10-13T22:54:01.794Z,24.07
2022-10-13T22:56:31.151Z,23.43
2022-10-13T22:59:00.856Z,23.97
2022-10-13T23:01:29.357Z,24.37
2022-10-13T23:03:57.788Z,25.20
2022-10-13T23:06:30.613Z,24.73
2022-10-13T23:09:04.622Z,25.30
2022-10-13T23:11:31.679Z,26.83
2022-10-13T23:13:58.675Z,27.07
2022-10-13T23:16:29.059Z,28.30
2022-10-13T23:18:56.001Z,26.27
2022-10-13T23:21:26.194Z,26.43
2022-10-13T23:23:59.812Z,28.03
2022-10-13T23:26:31.060Z,25.27
2022-10-13T23:28:59.180Z,26.67
2022-10-13T23:31:36.422Z,28.33
2022-10-13T23:34:06.466Z,26.93
2022-10-13T23:36:39.941Z,26.80
2022-10-13T23:39:07.711Z,27.23
2022-10-13T23:41:37.639Z,26.07
2022-10-13T23:44:07.039Z,25.53
2022-10-13T23:46:37.160Z,27.73
2022-10-13T23:49:13.190Z,28.53
2022-10-13T23:51:44.259Z,27.50
2022-10-13T23:54:19.412Z,29.40
2022-10-13T23:56:48.730Z,26.43
2022-10-13T23:59:16.108Z,26.47
